createdAt,value
2022-09-30T00:01:46.786Z,6.30
2022-09-30T00:04:17.687Z,6.30
2022-09-30T00:06:46.374Z,6.30
2022-09-30T00:09:16.841Z,6.20
2022-09-30T00:11:45.743Z,6.20
2022-09-30T00:14:24.693Z,6.20
2022-09-30T00:16:56.249Z,6.20
2022-09-30T00:19:27.039Z,6.20
2022-09-30T00:21:56.696Z,6.20
2022-09-30T00:24:31.357Z,6.20
2022-09-30T00:27:00.080Z,6.10
2022-09-30T00:29:28.722Z,6.10
2022-09-30T00:31:57.421Z,6.00
2022-09-30T00:34:26.238Z,6.10
2022-09-30T00:36:56.585Z,6.10
2022-09-30T00:39:27.892Z,6.10
2022-09-30T00:41:59.329Z,6.10
2022-09-30T00:44:51.058Z,6.10
2022-09-30T00:47:40.761Z,6.00
2022-09-30T00:50:20.109Z,6.00
2022-09-30T00:52:55.409Z,6.10
2022-09-30T00:55:35.387Z,5.90
2022-09-30T00:58:06.833Z,5.90
2022-09-30T01:00:35.679Z,5.80
2022-09-30T01:03:07.398Z,5.80
2022-09-30T01:05:36.620Z,5.90
2022-09-30T01:08:08.161Z,5.90
2022-09-30T01:10:38.355Z,5.80
2022-09-30T01:13:07.535Z,5.80
2022-09-30T01:15:51.358Z,5.70
2022-09-30T01:18:28.506Z,5.70
2022-09-30T01:21:14.798Z,5.70
2022-09-30T01:24:17.367Z,5.60
2022-09-30T01:27:06.534Z,5.70
2022-09-30T01:30:05.743Z,5.60
2022-09-30T01:33:07.306Z,5.60
2022-09-30T01:35:50.841Z,5.50
2022-09-30T01:38:29.318Z,5.30
2022-09-30T01:41:06.644Z,5.30
2022-09-30T01:44:01.915Z,5.20
2022-09-30T01:46:37.228Z,5.10
2022-09-30T01:49:13.788Z,5.30
2022-09-30T01:51:51.191Z,5.30
2022-09-30T01:54:25.181Z,5.20
2022-09-30T01:57:03.651Z,5.10
2022-09-30T01:59:37.429Z,5.10
2022-09-30T02:02:11.799Z,5.10
2022-09-30T02:04:45.780Z,5.10
2022-09-30T02:07:25.120Z,5.10
2022-09-30T02:10:00.078Z,5.10
2022-09-30T02:12:32.687Z,4.90
2022-09-30T02:15:04.513Z,4.80
2022-09-30T02:17:36.593Z,4.80
2022-09-30T02:20:10.290Z,4.70
2022-09-30T02:22:43.368Z,4.80
2022-09-30T02:25:19.145Z,4.80
2022-09-30T02:27:51.767Z,4.80
2022-09-30T02:30:20.729Z,4.90
2022-09-30T02:32:52.211Z,4.90
2022-09-30T02:35:27.611Z,4.80
2022-09-30T02:38:05.743Z,4.80
2022-09-30T02:40:40.817Z,4.80
2022-09-30T02:43:10.478Z,4.60
2022-09-30T02:45:47.573Z,4.50
2022-09-30T02:48:26.645Z,4.60
2022-09-30T02:51:04.004Z,4.70
2022-09-30T02:53:39.891Z,4.70
2022-09-30T02:56:20.782Z,4.70
2022-09-30T02:58:51.286Z,4.70
2022-09-30T03:01:20.115Z,4.70
2022-09-30T03:03:52.783Z,4.60
2022-09-30T03:06:25.953Z,4.70
2022-09-30T03:08:55.181Z,4.70
2022-09-30T03:11:25.713Z,4.80
2022-09-30T03:14:12.076Z,4.80
2022-09-30T03:17:12.459Z,4.80
2022-09-30T03:19:52.670Z,4.80
2022-09-30T03:22:36.515Z,4.80
2022-09-30T03:25:25.102Z,4.70
2022-09-30T03:28:05.960Z,4.50
2022-09-30T03:30:42.209Z,4.20
2022-09-30T03:33:17.956Z,4.00
2022-09-30T03:35:54.907Z,3.70
2022-09-30T03:38:36.209Z,3.80
2022-09-30T03:41:11.890Z,3.90
2022-09-30T03:43:46.610Z,4.00
2022-09-30T03:46:22.192Z,4.00
2022-09-30T03:48:53.043Z,3.90
2022-09-30T03:51:24.857Z,4.00
2022-09-30T03:53:55.387Z,4.00
2022-09-30T03:56:27.396Z,3.90
2022-09-30T03:58:55.735Z,3.90
2022-09-30T04:01:24.862Z,3.90
2022-09-30T04:03:59.840Z,3.90
2022-09-30T04:06:29.101Z,3.90
2022-09-30T04:08:59.068Z,4.00
2022-09-30T04:11:27.565Z,3.90
2022-09-30T04:13:55.886Z,3.90
2022-09-30T04:16:25.158Z,3.90
2022-09-30T04:18:53.919Z,3.70
2022-09-30T04:21:22.104Z,3.60
2022-09-30T04:23:50.910Z,3.60
2022-09-30T04:26:20.924Z,3.70
2022-09-30T04:28:49.723Z,3.70
2022-09-30T04:31:19.597Z,3.70
2022-09-30T04:33:48.109Z,3.70
2022-09-30T04:36:16.504Z,3.70
2022-09-30T04:38:45.240Z,3.80
2022-09-30T04:41:16.132Z,3.70
2022-09-30T04:43:47.060Z,3.40
2022-09-30T04:46:19.094Z,3.50
2022-09-30T04:48:48.760Z,3.60
2022-09-30T04:51:18.842Z,3.60
2022-09-30T04:53:48.227Z,3.70
2022-09-30T04:56:19.779Z,3.70
2022-09-30T04:58:49.797Z,3.80
2022-09-30T05:01:19.525Z,3.70
2022-09-30T05:03:48.912Z,3.70
2022-09-30T05:06:17.613Z,3.80
2022-09-30T05:08:46.681Z,3.80
2022-09-30T05:11:23.449Z,4.00
2022-09-30T05:13:54.023Z,4.00
2022-09-30T05:16:22.872Z,3.90
2022-09-30T05:18:51.663Z,4.00
2022-09-30T05:21:21.287Z,4.10
2022-09-30T05:23:50.173Z,4.00
2022-09-30T05:26:19.690Z,4.00
2022-09-30T05:28:47.978Z,4.00
2022-09-30T05:31:17.835Z,4.00
2022-09-30T05:33:47.978Z,4.10
2022-09-30T05:36:18.062Z,4.10
2022-09-30T05:38:46.623Z,4.00
2022-09-30T05:41:16.341Z,4.10
2022-09-30T05:43:47.832Z,4.10
2022-09-30T05:46:19.086Z,4.00
2022-09-30T05:48:48.061Z,3.90
2022-09-30T05:51:16.561Z,3.90
2022-09-30T05:53:49.430Z,3.80
2022-09-30T05:56:17.969Z,3.90
2022-09-30T05:58:47.290Z,4.00
2022-09-30T06:01:18.167Z,4.00
2022-09-30T06:03:48.082Z,4.10
2022-09-30T06:06:17.388Z,4.00
2022-09-30T06:08:45.931Z,4.00
2022-09-30T06:11:16.221Z,4.10
2022-09-30T06:13:45.929Z,4.10
2022-09-30T06:16:16.140Z,4.30
2022-09-30T06:18:46.349Z,4.40
2022-09-30T06:21:17.617Z,4.40
2022-09-30T06:23:46.617Z,4.50
2022-09-30T06:26:15.742Z,4.60
2022-09-30T06:28:44.707Z,4.70
2022-09-30T06:31:14.156Z,4.90
2022-09-30T06:33:45.120Z,4.70
2022-09-30T06:36:13.434Z,4.60
2022-09-30T06:38:41.828Z,4.60
2022-09-30T06:41:10.937Z,4.60
2022-09-30T06:43:42.454Z,4.60
2022-09-30T06:46:17.648Z,5.00
2022-09-30T06:48:49.893Z,5.30
2022-09-30T06:51:18.116Z,5.10
2022-09-30T06:53:49.012Z,5.00
2022-09-30T06:56:20.998Z,4.90
2022-09-30T06:58:51.761Z,4.90
2022-09-30T07:01:21.071Z,5.00
2022-09-30T07:03:56.548Z,5.30
2022-09-30T07:06:27.047Z,5.40
2022-09-30T07:08:57.064Z,5.50
2022-09-30T07:11:26.544Z,5.70
2022-09-30T07:13:55.471Z,6.00
2022-09-30T07:16:25.746Z,6.10
2022-09-30T07:18:59.806Z,6.30
2022-09-30T07:21:28.288Z,6.20
2022-09-30T07:23:57.039Z,6.20
2022-09-30T07:26:28.182Z,6.30
2022-09-30T07:28:56.459Z,6.50
2022-09-30T07:31:35.610Z,6.60
2022-09-30T07:34:10.665Z,6.80
2022-09-30T07:36:41.848Z,7.20
2022-09-30T07:39:17.757Z,7.40
2022-09-30T07:41:47.141Z,7.60
2022-09-30T07:44:16.067Z,7.90
2022-09-30T07:46:45.608Z,7.50
2022-09-30T07:49:25.494Z,7.50
2022-09-30T07:51:55.861Z,7.40
2022-09-30T07:54:25.861Z,7.80
2022-09-30T07:57:11.086Z,8.00
2022-09-30T07:59:44.237Z,8.30
2022-09-30T08:02:17.787Z,8.60
2022-09-30T08:04:47.773Z,8.80
2022-09-30T08:07:17.373Z,8.90
2022-09-30T08:09:45.728Z,9.10
2022-09-30T08:12:14.166Z,9.20
2022-09-30T08:14:42.597Z,9.30
2022-09-30T08:17:11.112Z,9.40
2022-09-30T08:19:44.062Z,9.70
2022-09-30T08:22:15.055Z,9.90
2022-09-30T08:24:43.342Z,10.10
2022-09-30T08:27:11.684Z,10.20
2022-09-30T08:29:54.444Z,10.40
2022-09-30T08:32:23.392Z,10.80
2022-09-30T08:34:51.687Z,11.10
2022-09-30T08:37:21.297Z,10.90
2022-09-30T08:39:49.557Z,11.10
2022-09-30T08:42:37.957Z,11.30
2022-09-30T08:45:18.365Z,11.50
2022-09-30T08:47:54.349Z,11.50
2022-09-30T08:50:30.627Z,11.60
2022-09-30T08:53:03.869Z,11.80
2022-09-30T08:55:39.923Z,11.80
2022-09-30T08:58:16.439Z,11.90
2022-09-30T09:00:45.034Z,12.10
2022-09-30T09:03:15.860Z,12.30
2022-09-30T09:05:52.686Z,12.30
2022-09-30T09:08:30.588Z,12.30
2022-09-30T09:11:05.942Z,12.40
2022-09-30T09:13:46.464Z,12.40
2022-09-30T09:16:26.828Z,12.40
2022-09-30T09:19:05.525Z,12.60
2022-09-30T09:21:51.857Z,12.70
2022-09-30T09:24:27.083Z,12.70
2022-09-30T09:26:58.912Z,12.80
2022-09-30T09:29:39.588Z,12.80
2022-09-30T09:32:15.158Z,12.90
2022-09-30T09:34:43.567Z,13.30
2022-09-30T09:37:21.610Z,13.20
2022-09-30T09:40:04.681Z,13.50
2022-09-30T09:42:56.331Z,13.60
2022-09-30T09:45:30.657Z,13.80
2022-09-30T09:48:00.122Z,13.90
2022-09-30T09:50:37.409Z,14.00
2022-09-30T09:53:30.249Z,14.10
2022-09-30T09:56:00.667Z,14.20
2022-09-30T09:58:29.934Z,14.40
2022-09-30T10:01:32.821Z,14.40
2022-09-30T10:04:15.510Z,14.60
2022-09-30T10:06:52.552Z,14.60
2022-09-30T10:09:32.300Z,14.50
2022-09-30T10:12:30.843Z,14.80
2022-09-30T10:15:03.361Z,14.60
2022-09-30T10:17:33.584Z,14.30
2022-09-30T10:20:08.323Z,14.50
2022-09-30T10:22:38.187Z,14.70
2022-09-30T10:25:18.645Z,14.90
2022-09-30T10:27:54.763Z,15.10
2022-09-30T10:30:43.985Z,14.90
2022-09-30T10:33:24.452Z,15.00
2022-09-30T10:36:01.733Z,15.30
2022-09-30T10:38:32.329Z,15.40
2022-09-30T10:41:01.069Z,15.40
2022-09-30T10:43:36.031Z,15.50
2022-09-30T10:46:25.083Z,15.60
2022-09-30T10:48:57.180Z,15.70
2022-09-30T10:51:31.340Z,16.40
2022-09-30T10:53:59.558Z,16.20
2022-09-30T10:56:43.789Z,16.20
2022-09-30T10:59:31.285Z,16.40
2022-09-30T11:02:06.736Z,16.40
2022-09-30T11:04:40.566Z,16.30
2022-09-30T11:07:23.183Z,16.30
2022-09-30T11:09:57.958Z,16.20
2022-09-30T11:12:33.652Z,16.20
2022-09-30T11:15:14.132Z,16.20
2022-09-30T11:17:49.939Z,15.90
2022-09-30T11:20:22.774Z,16.40
2022-09-30T11:22:57.082Z,16.30
2022-09-30T11:25:37.683Z,16.40
2022-09-30T11:28:27.173Z,16.30
2022-09-30T11:31:07.265Z,16.20
2022-09-30T11:33:54.588Z,16.10
2022-09-30T11:36:32.189Z,16.10
2022-09-30T11:39:14.249Z,16.00
2022-09-30T11:41:47.335Z,16.60
2022-09-30T11:44:30.513Z,17.40
2022-09-30T11:47:15.711Z,17.90
2022-09-30T11:50:18.297Z,17.70
2022-09-30T11:52:56.610Z,17.30
2022-09-30T11:55:58.567Z,16.70
2022-09-30T11:58:41.867Z,16.80
2022-09-30T12:01:22.473Z,17.00
2022-09-30T12:04:00.433Z,17.00
2022-09-30T12:06:34.533Z,17.10
2022-09-30T12:09:15.423Z,17.10
2022-09-30T12:11:50.854Z,17.30
2022-09-30T12:14:26.515Z,17.30
2022-09-30T12:17:14.360Z,17.40
2022-09-30T12:19:49.259Z,17.40
2022-09-30T12:22:21.288Z,17.50
2022-09-30T12:24:50.049Z,17.60
2022-09-30T12:27:22.631Z,17.30
2022-09-30T12:30:16.530Z,17.50
2022-09-30T12:33:22.252Z,17.90
2022-09-30T12:36:27.895Z,18.20
2022-09-30T12:39:34.124Z,18.50
2022-09-30T12:42:24.320Z,19.30
2022-09-30T12:45:25.601Z,19.50
2022-09-30T12:47:57.188Z,19.30
2022-09-30T12:50:32.763Z,19.10
2022-09-30T12:53:15.007Z,18.00
2022-09-30T12:55:46.463Z,17.30
2022-09-30T12:58:31.196Z,17.00
2022-09-30T13:01:06.865Z,16.90
2022-09-30T13:03:51.226Z,17.20
2022-09-30T13:06:22.102Z,17.40
2022-09-30T13:09:19.926Z,17.50
2022-09-30T13:12:13.649Z,18.00
2022-09-30T13:14:44.144Z,17.90
2022-09-30T13:17:36.545Z,17.60
2022-09-30T13:20:52.755Z,18.30
2022-09-30T13:23:39.593Z,17.70
2022-09-30T13:26:34.498Z,17.80
2022-09-30T13:29:38.265Z,18.70
2022-09-30T13:32:11.609Z,19.10
2022-09-30T13:34:58.344Z,20.00
2022-09-30T13:37:41.440Z,19.90
2022-09-30T13:40:37.811Z,19.50
2022-09-30T13:43:21.132Z,19.60
2022-09-30T13:45:53.062Z,19.30
2022-09-30T13:48:27.587Z,19.50
2022-09-30T13:50:58.213Z,19.20
2022-09-30T13:53:32.458Z,18.90
2022-09-30T13:56:03.885Z,18.20
2022-09-30T13:58:54.707Z,17.60
2022-09-30T14:01:44.396Z,16.80
2022-09-30T14:04:47.580Z,16.30
2022-09-30T14:07:26.388Z,16.00
2022-09-30T14:10:29.895Z,15.50
2022-09-30T14:13:15.146Z,15.40
2022-09-30T14:16:16.614Z,15.50
2022-09-30T14:19:07.879Z,15.70
2022-09-30T14:21:42.813Z,15.70
2022-09-30T14:24:17.658Z,15.80
2022-09-30T14:27:16.356Z,16.00
2022-09-30T14:29:54.819Z,15.90
2022-09-30T14:32:29.488Z,15.70
2022-09-30T14:35:01.149Z,15.40
2022-09-30T14:37:34.144Z,15.20
2022-09-30T14:40:04.113Z,15.30
2022-09-30T14:42:37.034Z,15.30
2022-09-30T14:45:07.915Z,15.30
2022-09-30T14:47:40.605Z,15.30
2022-09-30T14:50:16.360Z,15.20
2022-09-30T14:52:46.590Z,14.90
2022-09-30T14:55:27.093Z,14.80
2022-09-30T14:57:58.051Z,14.60
2022-09-30T15:00:32.147Z,14.80
2022-09-30T15:03:02.229Z,14.60
2022-09-30T15:05:32.666Z,14.80
2022-09-30T15:08:07.578Z,14.70
2022-09-30T15:10:36.374Z,14.90
2022-09-30T15:13:06.391Z,15.00
2022-09-30T15:15:37.264Z,14.90
2022-09-30T15:18:33.062Z,14.90
2022-09-30T15:21:14.434Z,14.70
2022-09-30T15:23:45.905Z,14.70
2022-09-30T15:26:15.818Z,14.70
2022-09-30T15:28:45.776Z,14.60
2022-09-30T15:31:25.417Z,14.40
2022-09-30T15:34:06.156Z,14.30
2022-09-30T15:36:38.397Z,14.40
2022-09-30T15:39:18.684Z,14.30
2022-09-30T15:41:48.741Z,14.10
2022-09-30T15:44:19.914Z,14.20
2022-09-30T15:47:05.638Z,14.10
2022-09-30T15:49:47.415Z,14.10
2022-09-30T15:52:29.461Z,13.90
2022-09-30T15:54:59.348Z,13.90
2022-09-30T15:57:46.979Z,13.70
2022-09-30T16:00:39.362Z,13.60
2022-09-30T16:03:19.016Z,13.60
2022-09-30T16:05:53.195Z,13.50
2022-09-30T16:08:27.362Z,13.60
2022-09-30T16:10:58.471Z,13.40
2022-09-30T16:13:30.785Z,13.40
2022-09-30T16:16:00.073Z,13.40
2022-09-30T16:18:34.779Z,13.30
2022-09-30T16:21:05.436Z,13.40
2022-09-30T16:23:38.511Z,13.20
2022-09-30T16:26:24.787Z,13.20
2022-09-30T16:28:53.654Z,13.10
2022-09-30T16:31:22.293Z,13.00
2022-09-30T16:33:51.130Z,12.90
2022-09-30T16:36:20.291Z,12.80
2022-09-30T16:38:49.941Z,12.80
2022-09-30T16:41:18.612Z,12.80
2022-09-30T16:43:46.943Z,12.80
2022-09-30T16:46:15.141Z,12.60
2022-09-30T16:48:43.886Z,12.50
2022-09-30T16:51:15.862Z,12.30
2022-09-30T16:53:47.051Z,12.30
2022-09-30T16:56:19.316Z,12.10
2022-09-30T16:58:48.206Z,12.10
2022-09-30T17:01:20.948Z,12.20
2022-09-30T17:03:50.089Z,11.90
2022-09-30T17:06:20.940Z,11.90
2022-09-30T17:08:50.559Z,11.70
2022-09-30T17:11:20.610Z,11.70
2022-09-30T17:13:48.849Z,11.70
2022-09-30T17:16:17.655Z,11.60
2022-09-30T17:18:47.032Z,11.60
2022-09-30T17:21:18.377Z,11.50
2022-09-30T17:23:46.687Z,11.40
2022-09-30T17:26:19.943Z,11.40
2022-09-30T17:28:48.167Z,11.40
2022-09-30T17:31:16.504Z,11.40
2022-09-30T17:33:45.433Z,11.20
2022-09-30T17:36:15.388Z,11.10
2022-09-30T17:38:46.019Z,10.90
2022-09-30T17:41:34.056Z,10.90
2022-09-30T17:44:04.978Z,10.90
2022-09-30T17:46:43.011Z,10.80
2022-09-30T17:49:12.198Z,10.80
2022-09-30T17:51:41.376Z,10.70
2022-09-30T17:54:10.127Z,10.80
2022-09-30T17:56:38.976Z,10.80
2022-09-30T17:59:09.732Z,11.00
2022-09-30T18:01:47.161Z,10.90
2022-09-30T18:04:15.827Z,11.00
2022-09-30T18:06:44.124Z,10.90
2022-09-30T18:09:12.565Z,11.00
2022-09-30T18:11:43.743Z,11.00
2022-09-30T18:14:17.635Z,10.90
2022-09-30T18:16:46.299Z,10.90
2022-09-30T18:21:47.676Z,10.70
2022-09-30T18:24:39.154Z,10.80
2022-09-30T18:27:07.723Z,10.70
2022-09-30T18:29:38.678Z,10.70
2022-09-30T18:32:07.663Z,10.60
2022-09-30T18:34:36.215Z,10.60
2022-09-30T18:37:11.845Z,10.60
2022-09-30T18:39:41.087Z,10.60
2022-09-30T18:42:09.561Z,10.60
2022-09-30T18:44:40.170Z,10.60
2022-09-30T18:47:08.504Z,10.50
2022-09-30T18:49:38.035Z,10.60
2022-09-30T18:52:06.560Z,10.60
2022-09-30T18:54:43.693Z,10.50
2022-09-30T18:57:14.457Z,10.60
2022-09-30T18:59:44.390Z,10.40
2022-09-30T19:02:20.810Z,10.50
2022-09-30T19:04:49.109Z,10.50
2022-09-30T19:07:20.560Z,10.50
2022-09-30T19:09:48.959Z,10.40
2022-09-30T19:12:17.796Z,10.30
2022-09-30T19:14:48.421Z,10.30
2022-09-30T19:17:17.222Z,10.40
2022-09-30T19:19:46.149Z,10.50
2022-09-30T19:22:14.627Z,10.50
2022-09-30T19:24:43.844Z,10.40
2022-09-30T19:27:12.520Z,10.50
2022-09-30T19:29:40.835Z,10.50
2022-09-30T19:32:12.855Z,10.40
2022-09-30T19:34:42.594Z,10.30
2022-09-30T19:37:22.402Z,10.40
2022-09-30T19:39:52.464Z,10.40
2022-09-30T19:42:21.372Z,10.60
2022-09-30T19:44:49.783Z,10.60
2022-09-30T19:47:19.883Z,10.60
2022-09-30T19:49:48.082Z,10.60
2022-09-30T19:52:21.832Z,10.60
2022-09-30T19:54:51.793Z,10.60
2022-09-30T19:57:20.036Z,10.50
2022-09-30T19:59:48.281Z,10.50
2022-09-30T20:02:16.674Z,10.60
2022-09-30T20:04:47.103Z,10.60
2022-09-30T20:07:16.063Z,10.70
2022-09-30T20:09:46.566Z,10.60
2022-09-30T20:12:17.787Z,10.50
2022-09-30T20:15:03.749Z,10.50
2022-09-30T20:17:32.017Z,10.50
2022-09-30T20:20:19.443Z,10.50
2022-09-30T20:22:47.692Z,10.60
2022-09-30T20:25:16.183Z,10.50
2022-09-30T20:27:51.952Z,10.50
2022-09-30T20:30:21.246Z,10.40
2022-09-30T20:32:49.525Z,10.40
2022-09-30T20:35:19.261Z,10.40
2022-09-30T20:37:47.721Z,10.30
2022-09-30T20:40:15.983Z,10.30
2022-09-30T20:42:44.961Z,10.30
2022-09-30T20:45:14.166Z,10.30
2022-09-30T20:47:45.551Z,10.30
2022-09-30T20:50:13.872Z,10.20
2022-09-30T20:52:43.833Z,10.10
2022-09-30T20:55:12.577Z,10.00
2022-09-30T20:57:44.447Z,10.10
2022-09-30T21:00:16.242Z,10.20
2022-09-30T21:02:44.586Z,10.20
2022-09-30T21:05:12.829Z,10.20
2022-09-30T21:07:41.395Z,10.00
2022-09-30T21:10:12.431Z,10.00
2022-09-30T21:12:42.822Z,9.90
2022-09-30T21:15:12.136Z,10.00
2022-09-30T21:17:41.090Z,10.00
2022-09-30T21:20:10.743Z,10.00
2022-09-30T21:22:38.934Z,10.00
2022-09-30T21:25:08.686Z,10.00
2022-09-30T21:27:38.399Z,9.90
2022-09-30T21:30:08.184Z,9.90
2022-09-30T21:32:36.363Z,9.90
2022-09-30T21:35:05.299Z,9.80
2022-09-30T21:37:33.560Z,9.60
2022-09-30T21:40:02.440Z,9.50
2022-09-30T21:42:30.611Z,9.40
2022-09-30T21:45:00.229Z,9.30
2022-09-30T21:47:28.984Z,9.20
2022-09-30T21:49:57.435Z,9.20
2022-09-30T21:52:28.566Z,9.30
2022-09-30T21:54:58.927Z,9.40
2022-09-30T21:57:29.046Z,9.40
2022-09-30T21:59:57.599Z,9.40
2022-09-30T22:02:27.945Z,9.50
2022-09-30T22:04:59.793Z,9.50
2022-09-30T22:07:28.107Z,9.50
2022-09-30T22:09:56.427Z,9.50
2022-09-30T22:12:24.689Z,9.60
2022-09-30T22:14:52.928Z,9.70
2022-09-30T22:17:21.452Z,9.60
2022-09-30T22:19:51.033Z,9.70
2022-09-30T22:22:19.783Z,9.60
2022-09-30T22:24:48.198Z,9.60
2022-09-30T22:27:16.432Z,9.60
2022-09-30T22:29:45.366Z,9.60
2022-09-30T22:32:13.672Z,9.60
2022-09-30T22:34:59.316Z,9.60
2022-09-30T22:38:09.441Z,9.60
2022-09-30T22:40:38.134Z,9.70
2022-09-30T22:43:06.353Z,9.70
2022-09-30T22:45:36.019Z,9.60
2022-09-30T22:48:07.679Z,9.50
2022-09-30T22:50:36.825Z,9.50
2022-09-30T22:53:07.278Z,9.50
2022-09-30T22:55:37.723Z,9.60
2022-09-30T22:58:06.423Z,9.40
2022-09-30T23:00:34.662Z,9.40
2022-09-30T23:03:03.635Z,9.40
2022-09-30T23:05:31.876Z,9.40
2022-09-30T23:08:00.030Z,9.40
2022-09-30T23:10:29.788Z,9.30
2022-09-30T23:12:58.367Z,9.30
2022-09-30T23:15:26.674Z,9.30
2022-09-30T23:17:55.022Z,9.40
2022-09-30T23:20:23.955Z,9.30
2022-09-30T23:22:52.418Z,9.30
2022-09-30T23:25:20.683Z,9.40
2022-09-30T23:27:50.728Z,9.30
2022-09-30T23:30:19.106Z,9.30
2022-09-30T23:32:47.270Z,9.40
2022-09-30T23:35:15.656Z,9.30
2022-09-30T23:37:43.955Z,9.30
2022-09-30T23:40:12.225Z,9.20
2022-09-30T23:42:40.490Z,9.20
2022-09-30T23:45:11.211Z,9.20
2022-09-30T23:47:39.382Z,9.20
2022-09-30T23:50:09.336Z,9.20
2022-09-30T23:52:37.536Z,9.20
2022-09-30T23:55:11.580Z,9.20
2022-09-30T23:57:40.151Z,9.30
